createdAt,value
2018-09-12T00:01:10.159Z,53.45
2018-09-12T00:03:39.043Z,55.05
2018-09-12T00:06:07.956Z,55.08
2018-09-12T00:08:36.908Z,54.16
2018-09-12T00:11:05.815Z,54.34
2018-09-12T00:13:34.734Z,54.58
2018-09-12T00:16:03.622Z,54.68
2018-09-12T00:18:32.571Z,54.93
2018-09-12T00:21:01.514Z,54.83
2018-09-12T00:23:30.431Z,55.66
2018-09-12T00:25:59.312Z,54.79
2018-09-12T00:28:28.204Z,55.89
2018-09-12T00:30:57.143Z,56.03
2018-09-12T00:33:26.022Z,55.75
2018-09-12T00:35:54.923Z,55.81
2018-09-12T00:38:23.792Z,56.23
2018-09-12T00:40:52.815Z,56.15
2018-09-12T00:43:21.691Z,56.10
2018-09-12T00:45:50.607Z,56.48
2018-09-12T00:48:19.495Z,56.08
2018-09-12T00:50:48.381Z,55.89
2018-09-12T00:53:17.281Z,56.44
2018-09-12T00:55:46.374Z,55.96
2018-09-12T00:58:15.260Z,55.63
2018-09-12T01:00:44.128Z,56.21
2018-09-12T01:03:13.141Z,55.68
2018-09-12T01:05:43.065Z,55.63
2018-09-12T01:08:13.391Z,56.68
2018-09-12T01:10:42.322Z,55.62
2018-09-12T01:13:11.282Z,55.83
2018-09-12T01:15:40.235Z,56.37
2018-09-12T01:18:13.260Z,56.59
2018-09-12T01:20:42.223Z,56.08
2018-09-12T01:23:11.172Z,56.42
2018-09-12T01:25:40.072Z,57.00
2018-09-12T01:28:08.963Z,57.70
2018-09-12T01:30:37.981Z,58.23
2018-09-12T01:33:06.940Z,57.01
2018-09-12T01:35:35.880Z,56.95
2018-09-12T01:38:04.849Z,57.29
2018-09-12T01:40:33.719Z,57.48
2018-09-12T01:43:02.591Z,57.16
2018-09-12T01:45:31.443Z,58.41
2018-09-12T01:48:00.424Z,57.58
2018-09-12T01:50:29.283Z,58.31
2018-09-12T01:52:58.172Z,56.88
2018-09-12T01:55:27.036Z,57.54
2018-09-12T01:57:55.973Z,57.56
2018-09-12T02:00:29.860Z,57.12
2018-09-12T02:02:58.787Z,56.50
2018-09-12T02:05:27.691Z,57.00
2018-09-12T02:07:56.546Z,57.02
2018-09-12T02:10:25.431Z,56.04
2018-09-12T02:12:54.307Z,56.83
2018-09-12T02:15:23.196Z,56.71
2018-09-12T02:17:52.117Z,55.86
2018-09-12T02:20:21.043Z,55.76
2018-09-12T02:22:49.922Z,55.79
2018-09-12T02:25:18.882Z,55.97
2018-09-12T02:27:47.812Z,55.76
2018-09-12T02:30:16.696Z,55.48
2018-09-12T02:32:45.579Z,55.45
2018-09-12T02:35:14.510Z,55.55
2018-09-12T02:37:43.465Z,55.06
2018-09-12T02:40:12.356Z,55.75
2018-09-12T02:42:41.301Z,55.99
2018-09-12T02:45:10.259Z,55.54
2018-09-12T02:47:40.090Z,55.68
2018-09-12T02:50:12.111Z,56.55
2018-09-12T02:52:41.019Z,55.65
2018-09-12T02:55:11.512Z,56.30
2018-09-12T02:57:40.405Z,55.59
2018-09-12T03:00:09.963Z,56.55
2018-09-12T03:02:38.841Z,56.20
2018-09-12T03:05:08.012Z,56.97
2018-09-12T03:07:36.887Z,56.87
2018-09-12T03:10:06.659Z,56.77
2018-09-12T03:12:35.580Z,56.23
2018-09-12T03:15:04.538Z,55.94
2018-09-12T03:17:33.444Z,56.90
2018-09-12T03:20:02.342Z,59.48
2018-09-12T03:22:31.329Z,60.38
2018-09-12T03:25:00.282Z,58.94
2018-09-12T03:27:29.222Z,57.51
2018-09-12T03:29:58.227Z,56.03
2018-09-12T03:32:27.120Z,56.53
2018-09-12T03:34:56.011Z,57.47
2018-09-12T03:37:24.893Z,58.18
2018-09-12T03:39:53.795Z,58.54
2018-09-12T03:42:22.757Z,58.92
2018-09-12T03:44:51.652Z,59.09
2018-09-12T03:47:20.607Z,59.53
2018-09-12T03:49:49.483Z,60.11
2018-09-12T03:52:18.383Z,60.76
2018-09-12T03:54:47.269Z,61.08
2018-09-12T03:57:16.170Z,60.91
2018-09-12T03:59:45.116Z,60.68
2018-09-12T04:02:14.080Z,63.96
2018-09-12T04:04:43.032Z,61.26
2018-09-12T04:07:11.957Z,60.80
2018-09-12T04:09:40.871Z,60.37
2018-09-12T04:12:09.811Z,61.16
2018-09-12T04:14:38.738Z,61.02
2018-09-12T04:17:07.685Z,61.40
2018-09-12T04:19:36.679Z,62.02
2018-09-12T04:22:05.596Z,62.51
2018-09-12T04:24:34.588Z,62.56
2018-09-12T04:27:03.480Z,62.07
2018-09-12T04:29:32.404Z,62.68
2018-09-12T04:32:01.322Z,63.05
2018-09-12T04:34:30.220Z,62.82
2018-09-12T04:36:59.128Z,62.71
2018-09-12T04:39:28.012Z,62.90
2018-09-12T04:41:56.904Z,62.58
2018-09-12T04:44:25.808Z,62.42
2018-09-12T04:46:54.829Z,62.56
2018-09-12T04:49:23.868Z,62.29
2018-09-12T04:51:52.808Z,62.19
2018-09-12T04:54:21.688Z,62.95
2018-09-12T04:56:50.564Z,62.56
2018-09-12T04:59:19.443Z,62.15
2018-09-12T05:01:48.429Z,62.13
2018-09-12T05:04:17.379Z,62.36
2018-09-12T05:06:46.272Z,63.57
2018-09-12T05:09:15.172Z,62.32
2018-09-12T05:11:44.075Z,62.11
2018-09-12T05:14:12.968Z,61.86
2018-09-12T05:16:41.976Z,61.46
2018-09-12T05:19:10.843Z,60.95
2018-09-12T05:21:39.856Z,60.30
2018-09-12T05:24:08.736Z,59.50
2018-09-12T05:26:37.654Z,59.38
2018-09-12T05:29:06.572Z,59.50
2018-09-12T05:31:35.486Z,59.27
2018-09-12T05:34:04.384Z,59.10
2018-09-12T05:36:33.502Z,59.80
2018-09-12T05:39:02.493Z,59.28
2018-09-12T05:41:31.371Z,59.56
2018-09-12T05:44:00.309Z,59.25
2018-09-12T05:46:29.210Z,58.61
2018-09-12T05:48:58.080Z,58.31
2018-09-12T05:51:26.967Z,58.51
2018-09-12T05:53:55.840Z,57.80
2018-09-12T05:56:24.732Z,57.95
2018-09-12T05:58:53.990Z,57.81
2018-09-12T06:01:22.964Z,57.58
2018-09-12T06:03:51.859Z,57.55
2018-09-12T06:06:20.800Z,57.34
2018-09-12T06:08:49.674Z,57.62
2018-09-12T06:11:18.544Z,56.90
2018-09-12T06:13:47.484Z,56.88
2018-09-12T06:16:16.372Z,56.69
2018-09-12T06:18:45.273Z,56.45
2018-09-12T06:21:14.156Z,56.24
2018-09-12T06:23:43.091Z,56.59
2018-09-12T06:26:12.045Z,56.13
2018-09-12T06:28:40.941Z,56.30
2018-09-12T06:31:09.831Z,56.08
2018-09-12T06:33:38.781Z,55.29
2018-09-12T06:36:07.683Z,55.37
2018-09-12T06:38:36.593Z,55.30
2018-09-12T06:41:05.522Z,54.58
2018-09-12T06:43:34.408Z,54.42
2018-09-12T06:46:03.390Z,54.26
2018-09-12T06:48:32.331Z,54.09
2018-09-12T06:51:01.320Z,53.97
2018-09-12T06:53:30.431Z,54.02
2018-09-12T06:55:59.316Z,53.77
2018-09-12T06:58:28.280Z,52.81
2018-09-12T07:00:57.239Z,53.54
2018-09-12T07:03:26.133Z,53.04
2018-09-12T07:05:55.038Z,52.31
2018-09-12T07:08:23.981Z,53.54
2018-09-12T07:10:52.886Z,53.84
2018-09-12T07:13:21.843Z,52.76
2018-09-12T07:15:51.070Z,52.00
2018-09-12T07:18:20.025Z,50.95
2018-09-12T07:20:48.967Z,51.97
2018-09-12T07:23:17.862Z,51.52
2018-09-12T07:25:46.768Z,50.74
2018-09-12T07:28:15.661Z,51.30
2018-09-12T07:30:44.608Z,50.85
2018-09-12T07:33:13.490Z,50.56
2018-09-12T07:35:42.400Z,51.35
2018-09-12T07:38:11.305Z,50.84
2018-09-12T07:40:40.183Z,50.81
2018-09-12T07:43:09.116Z,51.26
2018-09-12T07:45:38.036Z,49.92
2018-09-12T07:48:07.132Z,49.21
2018-09-12T07:50:36.203Z,48.33
2018-09-12T07:53:05.199Z,48.62
2018-09-12T07:55:34.179Z,48.33
2018-09-12T07:58:03.047Z,47.81
2018-09-12T08:00:31.957Z,46.70
2018-09-12T08:03:00.836Z,46.97
2018-09-12T08:05:29.721Z,46.82
2018-09-12T08:07:58.599Z,46.11
2018-09-12T08:10:27.523Z,46.21
2018-09-12T08:12:56.405Z,45.36
2018-09-12T08:15:25.423Z,44.55
2018-09-12T08:17:54.349Z,44.75
2018-09-12T08:20:23.282Z,44.14
2018-09-12T08:22:52.228Z,42.41
2018-09-12T08:25:21.108Z,41.05
2018-09-12T08:27:50.020Z,41.50
2018-09-12T08:30:19.017Z,41.67
2018-09-12T08:32:47.906Z,42.51
2018-09-12T08:35:18.228Z,42.47
2018-09-12T08:37:47.240Z,42.02
2018-09-12T08:40:16.133Z,42.92
2018-09-12T08:42:45.356Z,42.86
2018-09-12T08:45:14.269Z,42.65
2018-09-12T08:47:43.157Z,41.54
2018-09-12T08:50:12.100Z,41.57
2018-09-12T08:52:40.963Z,40.96
2018-09-12T08:55:09.875Z,41.49
2018-09-12T08:57:38.742Z,42.26
2018-09-12T09:00:07.947Z,42.46
2018-09-12T09:02:36.828Z,42.14
2018-09-12T09:05:05.772Z,42.17
2018-09-12T09:07:34.703Z,40.98
2018-09-12T09:10:07.753Z,41.52
2018-09-12T09:12:36.651Z,41.88
2018-09-12T09:15:05.847Z,41.46
2018-09-12T09:17:34.785Z,41.50
2018-09-12T09:20:03.661Z,40.50
2018-09-12T09:22:32.614Z,41.41
2018-09-12T09:25:01.500Z,40.83
2018-09-12T09:27:30.407Z,40.83
2018-09-12T09:29:59.313Z,41.44
2018-09-12T09:32:28.205Z,40.82
2018-09-12T09:34:57.162Z,40.77
2018-09-12T09:37:26.052Z,40.35
2018-09-12T09:39:54.946Z,40.45
2018-09-12T09:42:23.840Z,40.51
2018-09-12T09:44:52.833Z,40.55
2018-09-12T09:47:21.716Z,40.41
2018-09-12T09:49:54.716Z,40.31
2018-09-12T09:52:24.308Z,40.42
2018-09-12T09:54:53.354Z,39.74
2018-09-12T09:57:22.675Z,40.31
2018-09-12T09:59:51.991Z,40.19
2018-09-12T10:02:25.883Z,39.72
2018-09-12T10:04:59.857Z,40.96
2018-09-12T10:07:33.884Z,39.88
2018-09-12T10:10:05.594Z,40.08
2018-09-12T10:12:35.223Z,40.30
2018-09-12T10:15:05.233Z,39.10
2018-09-12T10:17:34.980Z,38.45
2018-09-12T10:20:04.050Z,37.80
2018-09-12T10:22:33.036Z,37.93
2018-09-12T10:25:01.925Z,37.38
2018-09-12T10:27:31.721Z,37.61
2018-09-12T10:30:00.626Z,37.92
2018-09-12T10:32:29.480Z,38.53
2018-09-12T10:34:58.416Z,37.60
2018-09-12T10:37:27.388Z,38.32
2018-09-12T10:39:56.272Z,38.52
2018-09-12T10:42:25.135Z,37.98
2018-09-12T10:44:54.040Z,37.56
2018-09-12T10:47:22.904Z,37.67
2018-09-12T10:49:52.017Z,37.96
2018-09-12T10:52:20.886Z,37.69
2018-09-12T10:54:49.782Z,37.27
2018-09-12T10:57:18.668Z,37.42
2018-09-12T10:59:47.568Z,37.55
2018-09-12T11:02:16.452Z,37.98
2018-09-12T11:04:45.315Z,36.59
2018-09-12T11:07:14.208Z,36.38
2018-09-12T11:09:43.126Z,36.02
2018-09-12T11:12:12.044Z,35.88
2018-09-12T11:14:40.973Z,37.40
2018-09-12T11:17:09.906Z,37.63
2018-09-12T11:19:38.788Z,37.96
2018-09-12T11:22:07.728Z,37.72
2018-09-12T11:24:36.624Z,36.92
2018-09-12T11:27:05.631Z,37.78
2018-09-12T11:29:34.535Z,36.71
2018-09-12T11:32:03.403Z,37.73
2018-09-12T11:34:32.344Z,37.89
2018-09-12T11:37:01.208Z,37.68
2018-09-12T11:39:30.156Z,37.70
2018-09-12T11:41:59.033Z,37.38
2018-09-12T11:44:27.951Z,37.79
2018-09-12T11:46:56.880Z,37.07
2018-09-12T11:49:25.734Z,36.44
2018-09-12T11:51:54.633Z,37.90
2018-09-12T11:54:23.503Z,36.54
2018-09-12T11:56:52.445Z,37.25
2018-09-12T11:59:21.334Z,37.20
2018-09-12T12:01:50.256Z,36.76
2018-09-12T12:04:19.156Z,36.40
2018-09-12T12:06:48.180Z,36.42
2018-09-12T12:09:17.089Z,37.07
2018-09-12T12:11:46.035Z,35.65
2018-09-12T12:14:14.944Z,36.54
2018-09-12T12:16:43.846Z,36.99
2018-09-12T12:19:12.811Z,36.37
2018-09-12T12:21:41.744Z,36.14
2018-09-12T12:24:10.628Z,37.15
2018-09-12T12:26:39.504Z,36.51
2018-09-12T12:29:08.436Z,36.89
2018-09-12T12:31:37.344Z,36.86
2018-09-12T12:34:06.226Z,36.17
2018-09-12T12:36:35.129Z,36.61
2018-09-12T12:39:04.999Z,37.28
2018-09-12T12:41:34.004Z,36.84
2018-09-12T12:44:02.890Z,36.48
2018-09-12T12:46:31.828Z,36.94
2018-09-12T12:49:00.778Z,36.27
2018-09-12T12:51:29.648Z,36.49
2018-09-12T12:53:58.524Z,37.47
2018-09-12T12:56:27.468Z,36.39
2018-09-12T12:58:56.412Z,36.51
2018-09-12T13:01:26.110Z,37.34
2018-09-12T13:03:55.120Z,37.35
2018-09-12T13:06:24.284Z,36.48
2018-09-12T13:08:53.149Z,37.86
2018-09-12T13:11:22.112Z,36.92
2018-09-12T13:13:51.093Z,38.04
2018-09-12T13:16:20.002Z,36.96
2018-09-12T13:18:49.259Z,36.98
2018-09-12T13:21:18.219Z,36.99
2018-09-12T13:23:47.107Z,36.41
2018-09-12T13:26:16.036Z,35.84
2018-09-12T13:28:45.013Z,35.85
2018-09-12T13:31:13.927Z,36.17
2018-09-12T13:33:42.803Z,36.69
2018-09-12T13:36:11.671Z,35.64
2018-09-12T13:38:40.549Z,36.47
2018-09-12T13:41:09.501Z,35.51
2018-09-12T13:43:38.435Z,35.71
2018-09-12T13:46:07.384Z,35.75
2018-09-12T13:48:36.253Z,35.38
2018-09-12T13:51:05.260Z,36.25
2018-09-12T13:53:34.137Z,36.51
2018-09-12T13:56:03.134Z,36.63
2018-09-12T13:58:32.080Z,36.72
2018-09-12T14:01:01.060Z,35.82
2018-09-12T14:03:29.963Z,36.32
2018-09-12T14:05:58.934Z,35.82
2018-09-12T14:08:27.831Z,36.36
2018-09-12T14:10:56.809Z,37.14
2018-09-12T14:13:25.900Z,35.90
2018-09-12T14:15:54.896Z,36.75
2018-09-12T14:18:23.868Z,36.86
2018-09-12T14:20:52.744Z,35.75
2018-09-12T14:23:21.712Z,36.44
2018-09-12T14:25:50.648Z,35.93
2018-09-12T14:28:19.573Z,36.24
2018-09-12T14:30:48.644Z,35.78
2018-09-12T14:33:17.565Z,35.60
2018-09-12T14:35:46.487Z,36.71
2018-09-12T14:38:15.517Z,35.93
2018-09-12T14:40:44.460Z,36.14
2018-09-12T14:43:13.380Z,36.12
2018-09-12T14:45:42.307Z,35.60
2018-09-12T14:48:11.235Z,34.48
2018-09-12T14:50:40.212Z,37.25
2018-09-12T14:53:09.139Z,35.39
2018-09-12T14:55:38.003Z,35.35
2018-09-12T14:58:06.920Z,35.03
2018-09-12T15:00:35.870Z,35.05
2018-09-12T15:03:04.780Z,35.29
2018-09-12T15:05:33.784Z,36.27
2018-09-12T15:08:02.698Z,35.30
2018-09-12T15:10:31.633Z,36.35
2018-09-12T15:13:00.540Z,36.51
2018-09-12T15:15:29.423Z,36.48
2018-09-12T15:17:58.286Z,35.92
2018-09-12T15:20:27.155Z,36.32
2018-09-12T15:22:56.040Z,35.89
2018-09-12T15:25:24.989Z,35.85
2018-09-12T15:27:53.895Z,36.29
2018-09-12T15:30:22.855Z,36.81
2018-09-12T15:32:51.729Z,36.37
2018-09-12T15:35:20.664Z,36.41
2018-09-12T15:37:49.560Z,36.51
2018-09-12T15:40:18.471Z,35.56
2018-09-12T15:42:47.475Z,35.74
2018-09-12T15:45:16.364Z,35.90
2018-09-12T15:47:45.275Z,35.83
2018-09-12T15:50:14.197Z,36.39
2018-09-12T15:52:43.097Z,36.92
2018-09-12T15:55:12.004Z,36.26
2018-09-12T15:57:41.777Z,37.02
2018-09-12T16:00:10.699Z,37.14
2018-09-12T16:02:39.688Z,36.67
2018-09-12T16:05:08.636Z,37.63
2018-09-12T16:07:37.527Z,36.79
2018-09-12T16:10:06.544Z,37.90
2018-09-12T16:12:35.489Z,37.04
2018-09-12T16:15:04.505Z,37.51
2018-09-12T16:17:33.388Z,37.69
2018-09-12T16:20:02.304Z,37.19
2018-09-12T16:22:31.179Z,37.90
2018-09-12T16:25:00.159Z,37.74
2018-09-12T16:27:29.159Z,37.40
2018-09-12T16:29:58.169Z,37.33
2018-09-12T16:32:27.194Z,38.18
2018-09-12T16:34:56.092Z,37.88
2018-09-12T16:37:24.976Z,38.52
2018-09-12T16:39:53.855Z,37.59
2018-09-12T16:42:22.737Z,37.81
2018-09-12T16:44:51.719Z,38.12
2018-09-12T16:47:20.586Z,38.45
2018-09-12T16:49:49.489Z,41.08
2018-09-12T16:52:18.369Z,38.69
2018-09-12T16:54:47.367Z,40.65
2018-09-12T16:57:16.355Z,38.74
2018-09-12T16:59:45.279Z,38.03
2018-09-12T17:02:14.172Z,38.69
2018-09-12T17:04:43.048Z,38.54
2018-09-12T17:07:11.974Z,38.06
2018-09-12T17:09:40.916Z,38.18
2018-09-12T17:12:10.104Z,41.54
2018-09-12T17:14:39.017Z,40.01
2018-09-12T17:17:07.970Z,39.03
2018-09-12T17:19:36.932Z,40.69
2018-09-12T17:22:05.824Z,40.06
2018-09-12T17:24:34.742Z,41.46
2018-09-12T17:27:03.670Z,42.35
2018-09-12T17:29:32.592Z,41.11
2018-09-12T17:32:01.531Z,40.98
2018-09-12T17:34:30.512Z,41.39
2018-09-12T17:36:59.394Z,42.23
2018-09-12T17:39:28.308Z,41.73
2018-09-12T17:41:57.311Z,41.45
2018-09-12T17:44:26.219Z,41.13
2018-09-12T17:46:55.215Z,41.48
2018-09-12T17:49:24.156Z,41.17
2018-09-12T17:51:53.147Z,40.29
2018-09-12T17:54:22.119Z,41.48
2018-09-12T17:56:51.097Z,40.99
2018-09-12T17:59:20.015Z,41.84
2018-09-12T18:01:48.924Z,41.59
2018-09-12T18:04:17.828Z,41.89
2018-09-12T18:06:46.705Z,41.63
2018-09-12T18:09:15.699Z,42.02
2018-09-12T18:11:44.594Z,42.38
2018-09-12T18:14:13.589Z,42.07
2018-09-12T18:16:42.515Z,42.89
2018-09-12T18:19:11.416Z,43.29
2018-09-12T18:21:40.944Z,43.38
2018-09-12T18:24:09.862Z,43.04
2018-09-12T18:26:39.072Z,42.87
2018-09-12T18:29:08.316Z,42.42
2018-09-12T18:31:37.222Z,42.49
2018-09-12T18:34:06.129Z,46.69
2018-09-12T18:36:35.026Z,44.23
2018-09-12T18:39:04.797Z,46.35
2018-09-12T18:41:33.820Z,48.47
2018-09-12T18:44:02.794Z,47.55
2018-09-12T18:46:31.749Z,47.30
2018-09-12T18:49:00.707Z,48.92
2018-09-12T18:51:29.600Z,47.30
2018-09-12T18:53:58.518Z,47.46
2018-09-12T18:56:27.412Z,47.22
2018-09-12T18:58:56.356Z,48.06
2018-09-12T19:01:25.340Z,46.31
2018-09-12T19:03:54.242Z,47.62
2018-09-12T19:06:23.132Z,47.51
2018-09-12T19:08:53.071Z,47.24
2018-09-12T19:11:22.068Z,46.68
2018-09-12T19:13:51.021Z,48.05
2018-09-12T19:16:20.065Z,48.04
2018-09-12T19:18:49.260Z,47.32
2018-09-12T19:21:18.499Z,47.04
2018-09-12T19:23:47.786Z,47.98
2018-09-12T19:26:17.235Z,48.55
2018-09-12T19:28:46.496Z,48.13
2018-09-12T19:31:15.424Z,47.64
2018-09-12T19:33:44.693Z,47.99
2018-09-12T19:36:13.926Z,48.09
2018-09-12T19:38:43.073Z,46.23
2018-09-12T19:41:12.285Z,46.47
2018-09-12T19:43:41.460Z,47.58
2018-09-12T19:46:10.744Z,47.86
2018-09-12T19:48:39.962Z,48.51
2018-09-12T19:51:16.305Z,49.05
2018-09-12T19:53:46.056Z,47.94
2018-09-12T19:56:15.992Z,48.56
2018-09-12T19:58:45.618Z,47.04
2018-09-12T20:01:14.876Z,47.85
2018-09-12T20:03:44.198Z,47.26
2018-09-12T20:06:13.400Z,47.95
2018-09-12T20:08:42.578Z,48.92
2018-09-12T20:11:11.808Z,49.17
2018-09-12T20:13:41.053Z,49.56
2018-09-12T20:16:10.288Z,49.37
2018-09-12T20:18:39.632Z,49.72
2018-09-12T20:21:09.254Z,48.79
2018-09-12T20:23:38.659Z,48.36
2018-09-12T20:26:07.759Z,48.84
2018-09-12T20:28:41.658Z,49.46
2018-09-12T20:31:11.254Z,49.49
2018-09-12T20:33:40.371Z,49.89
2018-09-12T20:36:09.746Z,48.86
2018-09-12T20:38:38.878Z,48.73
2018-09-12T20:41:08.151Z,48.83
2018-09-12T20:43:37.109Z,48.46
2018-09-12T20:46:06.379Z,49.18
2018-09-12T20:48:35.596Z,48.55
2018-09-12T20:51:04.891Z,47.88
2018-09-12T20:53:33.976Z,48.46
2018-09-12T20:56:03.324Z,48.76
2018-09-12T20:58:32.685Z,48.75
2018-09-12T21:01:02.024Z,49.39
2018-09-12T21:03:30.912Z,49.04
2018-09-12T21:06:00.164Z,50.08
2018-09-12T21:08:29.187Z,50.70
2018-09-12T21:10:58.553Z,50.97
2018-09-12T21:13:27.651Z,51.17
2018-09-12T21:15:56.948Z,51.78
2018-09-12T21:18:25.830Z,53.17
2018-09-12T21:20:54.964Z,53.22
2018-09-12T21:23:24.158Z,51.81
2018-09-12T21:25:53.337Z,52.57
2018-09-12T21:28:22.698Z,52.81
2018-09-12T21:30:51.596Z,54.50
2018-09-12T21:33:20.978Z,54.19
2018-09-12T21:35:50.322Z,52.66
2018-09-12T21:38:19.713Z,52.76
2018-09-12T21:40:48.960Z,53.21
2018-09-12T21:43:18.326Z,53.56
2018-09-12T21:45:47.426Z,53.62
2018-09-12T21:48:16.634Z,53.37
2018-09-12T21:50:45.832Z,54.13
2018-09-12T21:53:15.043Z,54.12
2018-09-12T21:55:44.188Z,54.10
2018-09-12T21:58:13.329Z,54.83
2018-09-12T22:00:42.702Z,54.09
2018-09-12T22:03:11.874Z,54.75
2018-09-12T22:05:40.748Z,54.65
2018-09-12T22:08:10.165Z,54.96
2018-09-12T22:10:39.560Z,55.40
2018-09-12T22:13:08.663Z,55.33
2018-09-12T22:15:37.916Z,55.52
2018-09-12T22:18:07.159Z,55.30
2018-09-12T22:20:36.366Z,55.81
2018-09-12T22:23:05.682Z,55.68
2018-09-12T22:25:34.931Z,56.08
2018-09-12T22:28:04.097Z,56.96
2018-09-12T22:30:33.351Z,54.90
2018-09-12T22:33:02.446Z,54.51
2018-09-12T22:35:31.398Z,56.38
2018-09-12T22:38:00.311Z,55.58
2018-09-12T22:40:29.195Z,55.24
2018-09-12T22:42:58.062Z,55.33
2018-09-12T22:45:27.080Z,57.03
2018-09-12T22:47:55.963Z,56.03
2018-09-12T22:50:24.854Z,56.77
2018-09-12T22:52:53.780Z,56.88
2018-09-12T22:55:22.659Z,56.54
2018-09-12T22:57:51.558Z,56.94
2018-09-12T23:00:20.504Z,56.98
2018-09-12T23:02:49.388Z,56.81
2018-09-12T23:05:18.310Z,56.32
2018-09-12T23:07:47.259Z,55.92
2018-09-12T23:10:16.153Z,55.89
2018-09-12T23:12:45.020Z,56.53
2018-09-12T23:15:13.929Z,56.22
2018-09-12T23:17:42.886Z,56.50
2018-09-12T23:20:11.768Z,56.35
2018-09-12T23:22:40.715Z,56.74
2018-09-12T23:25:09.653Z,56.59
2018-09-12T23:27:38.511Z,56.64
2018-09-12T23:30:07.490Z,56.84
2018-09-12T23:32:36.374Z,56.78
2018-09-12T23:35:05.352Z,57.15
2018-09-12T23:37:34.236Z,57.42
2018-09-12T23:40:03.177Z,57.86
2018-09-12T23:42:32.139Z,58.22
2018-09-12T23:45:01.030Z,58.38
2018-09-12T23:47:29.918Z,58.35
2018-09-12T23:49:58.792Z,58.13
2018-09-12T23:52:27.694Z,58.13
2018-09-12T23:54:56.579Z,58.65
2018-09-12T23:57:25.463Z,58.85
2018-09-12T23:59:54.335Z,58.82
